sensor_id;sensor_type;location;lat;lon;timestamp;temperature;humidity
17208;DHT22;8720;48.488;9.202;2022-08-11T00:01:19;22.70;29.50
17208;DHT22;8720;48.488;9.202;2022-08-11T00:03:52;22.70;29.60
17208;DHT22;8720;48.488;9.202;2022-08-11T00:06:26;22.60;29.60
17208;DHT22;8720;48.488;9.202;2022-08-11T00:08:57;22.60;29.80
17208;DHT22;8720;48.488;9.202;2022-08-11T00:11:34;22.60;29.80
17208;DHT22;8720;48.488;9.202;2022-08-11T00:14:10;22.50;29.90
17208;DHT22;8720;48.488;9.202;2022-08-11T00:16:40;22.50;29.80
17208;DHT22;8720;48.488;9.202;2022-08-11T00:19:12;22.50;29.90
17208;DHT22;8720;48.488;9.202;2022-08-11T00:21:47;22.40;30.00
17208;DHT22;8720;48.488;9.202;2022-08-11T00:24:15;22.40;30.00
17208;DHT22;8720;48.488;9.202;2022-08-11T00:26:48;22.40;30.00
17208;DHT22;8720;48.488;9.202;2022-08-11T00:29:18;22.30;30.20
17208;DHT22;8720;48.488;9.202;2022-08-11T00:31:48;22.30;30.10
17208;DHT22;8720;48.488;9.202;2022-08-11T00:34:19;22.30;30.20
17208;DHT22;8720;48.488;9.202;2022-08-11T00:36:50;22.30;30.20
17208;DHT22;8720;48.488;9.202;2022-08-11T00:39:22;22.20;30.20
17208;DHT22;8720;48.488;9.202;2022-08-11T00:42:11;22.20;30.30
17208;DHT22;8720;48.488;9.202;2022-08-11T00:44:59;22.20;30.60
17208;DHT22;8720;48.488;9.202;2022-08-11T00:47:45;22.20;30.60
17208;DHT22;8720;48.488;9.202;2022-08-11T00:50:25;22.10;30.70
17208;DHT22;8720;48.488;9.202;2022-08-11T00:53:23;22.10;31.40
17208;DHT22;8720;48.488;9.202;2022-08-11T00:56:37;22.10;31.00
17208;DHT22;8720;48.488;9.202;2022-08-11T01:03:15;22.00;31.10
17208;DHT22;8720;48.488;9.202;2022-08-11T01:06:02;22.00;31.50
17208;DHT22;8720;48.488;9.202;2022-08-11T01:12:37;21.80;31.80
17208;DHT22;8720;48.488;9.202;2022-08-11T01:15:51;21.70;31.60
17208;DHT22;8720;48.488;9.202;2022-08-11T01:22:23;21.60;31.90
17208;DHT22;8720;48.488;9.202;2022-08-11T01:33:01;21.40;32.70
17208;DHT22;8720;48.488;9.202;2022-08-11T01:42:56;21.00;33.10
17208;DHT22;8720;48.488;9.202;2022-08-11T01:46:06;20.90;34.00
17208;DHT22;8720;48.488;9.202;2022-08-11T01:48:42;20.80;33.10
17208;DHT22;8720;48.488;9.202;2022-08-11T01:51:33;20.70;33.40
17208;DHT22;8720;48.488;9.202;2022-08-11T01:54:20;20.50;34.30
17208;DHT22;8720;48.488;9.202;2022-08-11T01:57:02;20.40;33.60
17208;DHT22;8720;48.488;9.202;2022-08-11T01:59:45;20.40;33.90
17208;DHT22;8720;48.488;9.202;2022-08-11T02:02:33;20.30;34.00
17208;DHT22;8720;48.488;9.202;2022-08-11T02:05:26;20.20;34.50
17208;DHT22;8720;48.488;9.202;2022-08-11T02:08:09;20.20;34.50
17208;DHT22;8720;48.488;9.202;2022-08-11T02:10:53;20.10;34.80
17208;DHT22;8720;48.488;9.202;2022-08-11T02:13:47;20.00;34.60
17208;DHT22;8720;48.488;9.202;2022-08-11T02:16:38;19.90;34.50
17208;DHT22;8720;48.488;9.202;2022-08-11T02:19:28;19.90;35.20
17208;DHT22;8720;48.488;9.202;2022-08-11T02:22:28;19.80;35.00
17208;DHT22;8720;48.488;9.202;2022-08-11T02:25:27;19.80;34.90
17208;DHT22;8720;48.488;9.202;2022-08-11T02:28:04;19.70;35.10
17208;DHT22;8720;48.488;9.202;2022-08-11T02:30:39;19.60;35.00
17208;DHT22;8720;48.488;9.202;2022-08-11T02:33:36;19.60;35.40
17208;DHT22;8720;48.488;9.202;2022-08-11T02:36:11;19.50;35.50
17208;DHT22;8720;48.488;9.202;2022-08-11T02:38:50;19.50;35.80
17208;DHT22;8720;48.488;9.202;2022-08-11T02:41:48;19.40;36.00
17208;DHT22;8720;48.488;9.202;2022-08-11T02:44:42;19.30;36.00
17208;DHT22;8720;48.488;9.202;2022-08-11T02:47:31;19.30;35.70
17208;DHT22;8720;48.488;9.202;2022-08-11T02:50:13;19.20;36.30
17208;DHT22;8720;48.488;9.202;2022-08-11T02:52:50;19.20;36.20
17208;DHT22;8720;48.488;9.202;2022-08-11T02:55:29;19.10;36.10
17208;DHT22;8720;48.488;9.202;2022-08-11T02:58:10;19.10;36.10
17208;DHT22;8720;48.488;9.202;2022-08-11T03:00:51;19.00;36.50
17208;DHT22;8720;48.488;9.202;2022-08-11T03:03:28;19.00;36.50
17208;DHT22;8720;48.488;9.202;2022-08-11T03:06:07;19.00;36.30
17208;DHT22;8720;48.488;9.202;2022-08-11T03:08:49;18.90;36.50
17208;DHT22;8720;48.488;9.202;2022-08-11T03:11:41;18.90;37.10
17208;DHT22;8720;48.488;9.202;2022-08-11T03:14:45;18.80;37.20
17208;DHT22;8720;48.488;9.202;2022-08-11T03:17:36;18.80;37.20
17208;DHT22;8720;48.488;9.202;2022-08-11T03:20:27;18.70;37.00
17208;DHT22;8720;48.488;9.202;2022-08-11T03:23:06;18.70;37.60
17208;DHT22;8720;48.488;9.202;2022-08-11T03:25:48;18.60;37.20
17208;DHT22;8720;48.488;9.202;2022-08-11T03:28:28;18.60;37.30
17208;DHT22;8720;48.488;9.202;2022-08-11T03:31:19;18.50;37.50
17208;DHT22;8720;48.488;9.202;2022-08-11T03:33:53;18.50;37.90
17208;DHT22;8720;48.488;9.202;2022-08-11T03:36:51;18.50;37.30
17208;DHT22;8720;48.488;9.202;2022-08-11T03:39:36;18.40;37.80
17208;DHT22;8720;48.488;9.202;2022-08-11T03:42:19;18.40;37.40
17208;DHT22;8720;48.488;9.202;2022-08-11T03:45:16;18.40;37.90
17208;DHT22;8720;48.488;9.202;2022-08-11T03:48:06;18.40;38.30
17208;DHT22;8720;48.488;9.202;2022-08-11T03:51:02;18.30;38.30
17208;DHT22;8720;48.488;9.202;2022-08-11T03:53:47;18.30;38.80
17208;DHT22;8720;48.488;9.202;2022-08-11T03:56:45;18.20;38.50
17208;DHT22;8720;48.488;9.202;2022-08-11T04:03:27;18.20;39.40
17208;DHT22;8720;48.488;9.202;2022-08-11T04:10:09;18.10;39.00
17208;DHT22;8720;48.488;9.202;2022-08-11T04:16:46;18.00;38.90
17208;DHT22;8720;48.488;9.202;2022-08-11T04:19:50;18.00;38.40
17208;DHT22;8720;48.488;9.202;2022-08-11T04:22:59;17.90;39.00
17208;DHT22;8720;48.488;9.202;2022-08-11T04:25:58;17.90;38.90
17208;DHT22;8720;48.488;9.202;2022-08-11T04:28:58;17.90;39.20
17208;DHT22;8720;48.488;9.202;2022-08-11T04:31:36;17.90;39.30
17208;DHT22;8720;48.488;9.202;2022-08-11T04:34:23;17.90;39.00
17208;DHT22;8720;48.488;9.202;2022-08-11T04:37:16;17.90;39.30
17208;DHT22;8720;48.488;9.202;2022-08-11T04:47:27;18.10;40.20
17208;DHT22;8720;48.488;9.202;2022-08-11T04:50:36;18.50;40.80
17208;DHT22;8720;48.488;9.202;2022-08-11T04:53:53;18.90;40.80
17208;DHT22;8720;48.488;9.202;2022-08-11T04:56:45;19.50;40.50
17208;DHT22;8720;48.488;9.202;2022-08-11T05:00:02;19.80;39.90
17208;DHT22;8720;48.488;9.202;2022-08-11T05:03:27;20.10;39.60
17208;DHT22;8720;48.488;9.202;2022-08-11T05:09:44;20.30;39.00
17208;DHT22;8720;48.488;9.202;2022-08-11T05:12:42;20.30;38.90
17208;DHT22;8720;48.488;9.202;2022-08-11T05:15:19;20.20;38.80
17208;DHT22;8720;48.488;9.202;2022-08-11T05:18:15;20.20;38.80
17208;DHT22;8720;48.488;9.202;2022-08-11T05:21:07;20.10;38.70
17208;DHT22;8720;48.488;9.202;2022-08-11T05:24:00;20.10;38.80
17208;DHT22;8720;48.488;9.202;2022-08-11T05:26:52;20.10;38.70
17208;DHT22;8720;48.488;9.202;2022-08-11T05:29:41;20.00;38.80
17208;DHT22;8720;48.488;9.202;2022-08-11T05:32:34;20.00;38.80
17208;DHT22;8720;48.488;9.202;2022-08-11T05:35:26;19.90;38.90
17208;DHT22;8720;48.488;9.202;2022-08-11T05:37:58;19.90;39.10
17208;DHT22;8720;48.488;9.202;2022-08-11T05:40:51;19.90;38.90
17208;DHT22;8720;48.488;9.202;2022-08-11T05:43:43;19.90;39.30
17208;DHT22;8720;48.488;9.202;2022-08-11T05:46:28;19.90;39.20
17208;DHT22;8720;48.488;9.202;2022-08-11T05:49:22;19.90;39.80
17208;DHT22;8720;48.488;9.202;2022-08-11T05:52:13;19.90;39.20
17208;DHT22;8720;48.488;9.202;2022-08-11T05:55:02;19.90;39.40
17208;DHT22;8720;48.488;9.202;2022-08-11T05:57:53;19.90;39.20
17208;DHT22;8720;48.488;9.202;2022-08-11T06:00:23;20.00;39.30
17208;DHT22;8720;48.488;9.202;2022-08-11T06:02:53;20.00;40.00
17208;DHT22;8720;48.488;9.202;2022-08-11T06:05:32;20.10;39.50
17208;DHT22;8720;48.488;9.202;2022-08-11T06:08:00;20.10;39.80
17208;DHT22;8720;48.488;9.202;2022-08-11T06:10:31;20.10;39.60
17208;DHT22;8720;48.488;9.202;2022-08-11T06:13:00;20.20;39.80
17208;DHT22;8720;48.488;9.202;2022-08-11T06:15:32;20.30;40.20
17208;DHT22;8720;48.488;9.202;2022-08-11T06:18:09;20.60;40.50
17208;DHT22;8720;48.488;9.202;2022-08-11T06:20:45;21.10;40.70
17208;DHT22;8720;48.488;9.202;2022-08-11T06:23:16;21.50;40.30
17208;DHT22;8720;48.488;9.202;2022-08-11T06:25:45;21.90;40.90
17208;DHT22;8720;48.488;9.202;2022-08-11T06:28:14;22.40;40.30
17208;DHT22;8720;48.488;9.202;2022-08-11T06:30:46;23.00;40.40
17208;DHT22;8720;48.488;9.202;2022-08-11T06:33:17;23.60;39.90
17208;DHT22;8720;48.488;9.202;2022-08-11T06:35:58;24.30;39.30
17208;DHT22;8720;48.488;9.202;2022-08-11T06:38:56;25.10;38.20
17208;DHT22;8720;48.488;9.202;2022-08-11T06:41:37;25.80;37.70
17208;DHT22;8720;48.488;9.202;2022-08-11T06:44:24;26.40;36.80
17208;DHT22;8720;48.488;9.202;2022-08-11T06:47:04;27.10;35.80
17208;DHT22;8720;48.488;9.202;2022-08-11T06:49:36;27.60;35.00
17208;DHT22;8720;48.488;9.202;2022-08-11T06:52:30;28.20;35.00
17208;DHT22;8720;48.488;9.202;2022-08-11T06:55:04;28.70;34.10
17208;DHT22;8720;48.488;9.202;2022-08-11T06:57:36;29.10;33.60
17208;DHT22;8720;48.488;9.202;2022-08-11T07:00:23;29.50;32.80
17208;DHT22;8720;48.488;9.202;2022-08-11T07:02:59;29.90;32.40
17208;DHT22;8720;48.488;9.202;2022-08-11T07:05:39;30.30;31.50
17208;DHT22;8720;48.488;9.202;2022-08-11T07:12:00;31.00;30.50
17208;DHT22;8720;48.488;9.202;2022-08-11T07:14:54;31.50;30.30
17208;DHT22;8720;48.488;9.202;2022-08-11T07:17:43;31.70;30.00
17208;DHT22;8720;48.488;9.202;2022-08-11T07:20:15;32.00;29.70
17208;DHT22;8720;48.488;9.202;2022-08-11T07:23:03;32.10;29.40
17208;DHT22;8720;48.488;9.202;2022-08-11T07:25:59;32.30;29.30
17208;DHT22;8720;48.488;9.202;2022-08-11T07:28:47;32.40;29.30
17208;DHT22;8720;48.488;9.202;2022-08-11T07:31:29;32.60;29.10
17208;DHT22;8720;48.488;9.202;2022-08-11T07:34:07;32.80;28.30
17208;DHT22;8720;48.488;9.202;2022-08-11T07:36:46;33.00;27.60
17208;DHT22;8720;48.488;9.202;2022-08-11T07:39:19;33.10;27.80
17208;DHT22;8720;48.488;9.202;2022-08-11T07:41:49;33.20;27.20
17208;DHT22;8720;48.488;9.202;2022-08-11T07:44:19;33.20;27.20
17208;DHT22;8720;48.488;9.202;2022-08-11T07:46:51;33.10;27.00
17208;DHT22;8720;48.488;9.202;2022-08-11T07:49:39;33.00;26.80
17208;DHT22;8720;48.488;9.202;2022-08-11T07:52:32;32.80;26.90
17208;DHT22;8720;48.488;9.202;2022-08-11T07:55:05;32.60;26.90
17208;DHT22;8720;48.488;9.202;2022-08-11T07:57:34;32.50;27.10
17208;DHT22;8720;48.488;9.202;2022-08-11T08:00:21;32.30;27.30
17208;DHT22;8720;48.488;9.202;2022-08-11T08:03:06;32.20;27.30
17208;DHT22;8720;48.488;9.202;2022-08-11T08:05:52;32.10;27.40
17208;DHT22;8720;48.488;9.202;2022-08-11T08:08:40;32.00;27.40
17208;DHT22;8720;48.488;9.202;2022-08-11T08:11:26;31.80;27.10
17208;DHT22;8720;48.488;9.202;2022-08-11T08:14:11;31.70;27.00
17208;DHT22;8720;48.488;9.202;2022-08-11T08:16:57;31.70;27.20
17208;DHT22;8720;48.488;9.202;2022-08-11T08:19:43;31.60;27.10
17208;DHT22;8720;48.488;9.202;2022-08-11T08:22:16;31.50;27.20
17208;DHT22;8720;48.488;9.202;2022-08-11T08:24:47;31.50;27.30
17208;DHT22;8720;48.488;9.202;2022-08-11T08:27:15;31.40;27.10
17208;DHT22;8720;48.488;9.202;2022-08-11T08:29:45;31.40;27.30
17208;DHT22;8720;48.488;9.202;2022-08-11T08:32:31;31.40;27.30
17208;DHT22;8720;48.488;9.202;2022-08-11T08:35:01;31.40;27.30
17208;DHT22;8720;48.488;9.202;2022-08-11T08:37:30;31.40;27.50
17208;DHT22;8720;48.488;9.202;2022-08-11T08:40:00;31.50;27.40
17208;DHT22;8720;48.488;9.202;2022-08-11T08:42:30;31.50;26.20
17208;DHT22;8720;48.488;9.202;2022-08-11T08:45:05;31.60;26.10
17208;DHT22;8720;48.488;9.202;2022-08-11T08:47:37;31.60;25.80
17208;DHT22;8720;48.488;9.202;2022-08-11T08:50:12;31.60;25.60
17208;DHT22;8720;48.488;9.202;2022-08-11T08:52:49;31.60;25.30
17208;DHT22;8720;48.488;9.202;2022-08-11T08:55:23;31.60;25.10
17208;DHT22;8720;48.488;9.202;2022-08-11T08:57:55;31.50;25.00
17208;DHT22;8720;48.488;9.202;2022-08-11T09:00:36;31.50;25.00
17208;DHT22;8720;48.488;9.202;2022-08-11T09:03:05;31.40;24.70
17208;DHT22;8720;48.488;9.202;2022-08-11T09:05:33;31.40;24.80
17208;DHT22;8720;48.488;9.202;2022-08-11T09:08:01;31.30;24.60
17208;DHT22;8720;48.488;9.202;2022-08-11T09:10:31;31.20;24.50
17208;DHT22;8720;48.488;9.202;2022-08-11T09:13:00;31.10;24.00
17208;DHT22;8720;48.488;9.202;2022-08-11T09:15:31;31.00;24.00
17208;DHT22;8720;48.488;9.202;2022-08-11T09:18:00;30.80;23.80
17208;DHT22;8720;48.488;9.202;2022-08-11T09:20:33;30.60;24.00
17208;DHT22;8720;48.488;9.202;2022-08-11T09:23:03;30.50;24.20
17208;DHT22;8720;48.488;9.202;2022-08-11T09:25:52;30.30;24.10
17208;DHT22;8720;48.488;9.202;2022-08-11T09:28:41;30.10;23.90
17208;DHT22;8720;48.488;9.202;2022-08-11T09:31:10;30.00;24.20
17208;DHT22;8720;48.488;9.202;2022-08-11T09:33:39;29.90;24.30
17208;DHT22;8720;48.488;9.202;2022-08-11T09:36:11;29.80;24.40
17208;DHT22;8720;48.488;9.202;2022-08-11T09:38:56;29.80;24.20
17208;DHT22;8720;48.488;9.202;2022-08-11T09:41:44;29.70;24.20
17208;DHT22;8720;48.488;9.202;2022-08-11T09:44:13;29.60;24.20
17208;DHT22;8720;48.488;9.202;2022-08-11T09:46:58;29.60;24.40
17208;DHT22;8720;48.488;9.202;2022-08-11T09:49:27;29.60;24.70
17208;DHT22;8720;48.488;9.202;2022-08-11T09:51:56;29.50;24.50
17208;DHT22;8720;48.488;9.202;2022-08-11T09:54:24;29.50;24.30
17208;DHT22;8720;48.488;9.202;2022-08-11T09:56:54;29.50;24.30
17208;DHT22;8720;48.488;9.202;2022-08-11T09:59:39;29.50;24.50
17208;DHT22;8720;48.488;9.202;2022-08-11T10:02:08;29.50;24.30
17208;DHT22;8720;48.488;9.202;2022-08-11T10:04:39;29.50;24.10
17208;DHT22;8720;48.488;9.202;2022-08-11T10:07:13;29.40;24.00
17208;DHT22;8720;48.488;9.202;2022-08-11T10:09:45;29.40;24.00
17208;DHT22;8720;48.488;9.202;2022-08-11T10:12:22;29.40;24.20
17208;DHT22;8720;48.488;9.202;2022-08-11T10:14:54;29.40;24.20
17208;DHT22;8720;48.488;9.202;2022-08-11T10:17:47;29.30;23.80
17208;DHT22;8720;48.488;9.202;2022-08-11T10:20:35;29.30;24.50
17208;DHT22;8720;48.488;9.202;2022-08-11T10:23:03;29.30;24.10
17208;DHT22;8720;48.488;9.202;2022-08-11T10:25:49;29.30;24.20
17208;DHT22;8720;48.488;9.202;2022-08-11T10:28:36;29.30;24.20
17208;DHT22;8720;48.488;9.202;2022-08-11T10:31:04;29.20;24.50
17208;DHT22;8720;48.488;9.202;2022-08-11T10:33:50;29.30;24.40
17208;DHT22;8720;48.488;9.202;2022-08-11T10:36:30;29.30;24.40
17208;DHT22;8720;48.488;9.202;2022-08-11T10:39:01;29.30;24.40
17208;DHT22;8720;48.488;9.202;2022-08-11T10:41:30;29.30;24.20
17208;DHT22;8720;48.488;9.202;2022-08-11T10:44:19;29.40;24.20
17208;DHT22;8720;48.488;9.202;2022-08-11T10:46:49;29.40;24.30
17208;DHT22;8720;48.488;9.202;2022-08-11T10:49:36;29.40;24.30
17208;DHT22;8720;48.488;9.202;2022-08-11T10:52:04;29.40;24.30
17208;DHT22;8720;48.488;9.202;2022-08-11T10:54:49;29.40;24.40
17208;DHT22;8720;48.488;9.202;2022-08-11T10:57:36;29.40;24.30
17208;DHT22;8720;48.488;9.202;2022-08-11T11:00:22;29.40;24.10
17208;DHT22;8720;48.488;9.202;2022-08-11T11:02:50;29.40;24.10
17208;DHT22;8720;48.488;9.202;2022-08-11T11:05:24;29.40;24.00
17208;DHT22;8720;48.488;9.202;2022-08-11T11:08:00;29.40;24.00
17208;DHT22;8720;48.488;9.202;2022-08-11T11:10:57;29.30;23.90
17208;DHT22;8720;48.488;9.202;2022-08-11T11:13:25;29.30;24.00
17208;DHT22;8720;48.488;9.202;2022-08-11T11:16:12;29.20;23.90
17208;DHT22;8720;48.488;9.202;2022-08-11T11:19:07;29.20;24.00
17208;DHT22;8720;48.488;9.202;2022-08-11T11:21:37;29.20;23.90
17208;DHT22;8720;48.488;9.202;2022-08-11T11:24:11;29.20;23.80
17208;DHT22;8720;48.488;9.202;2022-08-11T11:26:55;29.20;23.80
17208;DHT22;8720;48.488;9.202;2022-08-11T11:29:43;29.20;24.00
17208;DHT22;8720;48.488;9.202;2022-08-11T11:32:31;29.20;24.00
17208;DHT22;8720;48.488;9.202;2022-08-11T11:35:24;29.30;24.00
17208;DHT22;8720;48.488;9.202;2022-08-11T11:37:57;29.40;23.90
17208;DHT22;8720;48.488;9.202;2022-08-11T11:40:27;29.40;23.80
17208;DHT22;8720;48.488;9.202;2022-08-11T11:42:58;29.40;24.10
17208;DHT22;8720;48.488;9.202;2022-08-11T11:45:27;29.50;24.10
17208;DHT22;8720;48.488;9.202;2022-08-11T11:47:58;29.50;23.90
17208;DHT22;8720;48.488;9.202;2022-08-11T11:50:28;29.50;23.80
17208;DHT22;8720;48.488;9.202;2022-08-11T11:52:58;29.50;23.80
17208;DHT22;8720;48.488;9.202;2022-08-11T11:55:27;29.50;23.60
17208;DHT22;8720;48.488;9.202;2022-08-11T11:57:57;29.50;24.20
17208;DHT22;8720;48.488;9.202;2022-08-11T12:00:45;29.50;23.80
17208;DHT22;8720;48.488;9.202;2022-08-11T12:03:34;29.50;24.10
17208;DHT22;8720;48.488;9.202;2022-08-11T12:06:02;29.50;23.60
17208;DHT22;8720;48.488;9.202;2022-08-11T12:08:31;29.50;23.60
17208;DHT22;8720;48.488;9.202;2022-08-11T12:11:01;29.50;23.80
17208;DHT22;8720;48.488;9.202;2022-08-11T12:13:51;29.60;23.60
17208;DHT22;8720;48.488;9.202;2022-08-11T12:16:20;29.60;23.60
17208;DHT22;8720;48.488;9.202;2022-08-11T12:18:53;29.60;23.60
17208;DHT22;8720;48.488;9.202;2022-08-11T12:21:24;29.70;23.30
17208;DHT22;8720;48.488;9.202;2022-08-11T12:23:55;29.60;23.50
17208;DHT22;8720;48.488;9.202;2022-08-11T12:26:41;29.70;23.50
17208;DHT22;8720;48.488;9.202;2022-08-11T12:29:27;29.80;23.60
17208;DHT22;8720;48.488;9.202;2022-08-11T12:31:55;29.80;23.30
17208;DHT22;8720;48.488;9.202;2022-08-11T12:34:27;29.80;23.00
17208;DHT22;8720;48.488;9.202;2022-08-11T12:36:57;29.90;22.90
17208;DHT22;8720;48.488;9.202;2022-08-11T12:39:33;29.90;22.80
17208;DHT22;8720;48.488;9.202;2022-08-11T12:42:30;29.90;22.70
17208;DHT22;8720;48.488;9.202;2022-08-11T12:45:18;29.90;23.00
17208;DHT22;8720;48.488;9.202;2022-08-11T12:48:02;29.90;23.00
17208;DHT22;8720;48.488;9.202;2022-08-11T12:50:55;29.90;23.00
17208;DHT22;8720;48.488;9.202;2022-08-11T12:53:58;29.90;23.00
17208;DHT22;8720;48.488;9.202;2022-08-11T12:56:35;29.90;23.10
17208;DHT22;8720;48.488;9.202;2022-08-11T12:59:22;29.90;23.20
17208;DHT22;8720;48.488;9.202;2022-08-11T13:02:16;29.90;23.20
17208;DHT22;8720;48.488;9.202;2022-08-11T13:05:04;30.00;23.10
17208;DHT22;8720;48.488;9.202;2022-08-11T13:07:36;30.00;23.20
17208;DHT22;8720;48.488;9.202;2022-08-11T13:10:08;30.00;22.90
17208;DHT22;8720;48.488;9.202;2022-08-11T13:12:37;30.10;23.00
17208;DHT22;8720;48.488;9.202;2022-08-11T13:15:15;30.10;23.20
17208;DHT22;8720;48.488;9.202;2022-08-11T13:17:47;30.10;23.00
17208;DHT22;8720;48.488;9.202;2022-08-11T13:20:17;30.10;22.90
17208;DHT22;8720;48.488;9.202;2022-08-11T13:22:50;30.10;23.10
17208;DHT22;8720;48.488;9.202;2022-08-11T13:25:23;30.20;23.30
17208;DHT22;8720;48.488;9.202;2022-08-11T13:27:55;30.20;23.40
17208;DHT22;8720;48.488;9.202;2022-08-11T13:30:25;30.30;22.90
17208;DHT22;8720;48.488;9.202;2022-08-11T13:33:14;30.40;22.90
17208;DHT22;8720;48.488;9.202;2022-08-11T13:35:46;30.40;22.80
17208;DHT22;8720;48.488;9.202;2022-08-11T13:38:19;30.40;22.80
17208;DHT22;8720;48.488;9.202;2022-08-11T13:40:49;30.50;22.80
17208;DHT22;8720;48.488;9.202;2022-08-11T13:43:19;30.50;22.90
17208;DHT22;8720;48.488;9.202;2022-08-11T13:45:49;30.50;22.80
17208;DHT22;8720;48.488;9.202;2022-08-11T13:48:40;30.50;22.70
17208;DHT22;8720;48.488;9.202;2022-08-11T13:51:09;30.50;22.90
17208;DHT22;8720;48.488;9.202;2022-08-11T13:53:56;30.50;23.10
17208;DHT22;8720;48.488;9.202;2022-08-11T13:56:25;30.60;23.30
17208;DHT22;8720;48.488;9.202;2022-08-11T13:58:54;30.60;23.00
17208;DHT22;8720;48.488;9.202;2022-08-11T14:01:24;30.60;22.70
17208;DHT22;8720;48.488;9.202;2022-08-11T14:03:54;30.60;22.60
17208;DHT22;8720;48.488;9.202;2022-08-11T14:06:29;30.60;22.60
17208;DHT22;8720;48.488;9.202;2022-08-11T14:08:59;30.60;22.60
17208;DHT22;8720;48.488;9.202;2022-08-11T14:11:28;30.60;22.50
17208;DHT22;8720;48.488;9.202;2022-08-11T14:14:20;30.60;22.40
17208;DHT22;8720;48.488;9.202;2022-08-11T14:16:53;30.70;22.30
17208;DHT22;8720;48.488;9.202;2022-08-11T14:19:24;30.70;22.50
17208;DHT22;8720;48.488;9.202;2022-08-11T14:21:54;30.70;22.50
17208;DHT22;8720;48.488;9.202;2022-08-11T14:24:39;30.70;22.80
17208;DHT22;8720;48.488;9.202;2022-08-11T14:27:09;30.70;22.70
17208;DHT22;8720;48.488;9.202;2022-08-11T14:29:39;30.80;22.90
17208;DHT22;8720;48.488;9.202;2022-08-11T14:32:10;30.80;22.90
17208;DHT22;8720;48.488;9.202;2022-08-11T14:34:41;30.80;22.80
17208;DHT22;8720;48.488;9.202;2022-08-11T14:37:12;30.80;22.80
17208;DHT22;8720;48.488;9.202;2022-08-11T14:39:46;30.80;22.70
17208;DHT22;8720;48.488;9.202;2022-08-11T14:42:17;30.80;23.00
17208;DHT22;8720;48.488;9.202;2022-08-11T14:45:05;30.80;22.80
17208;DHT22;8720;48.488;9.202;2022-08-11T14:48:08;30.80;22.80
17208;DHT22;8720;48.488;9.202;2022-08-11T14:50:36;30.90;23.00
17208;DHT22;8720;48.488;9.202;2022-08-11T14:53:07;30.90;23.10
17208;DHT22;8720;48.488;9.202;2022-08-11T14:55:42;31.00;23.10
17208;DHT22;8720;48.488;9.202;2022-08-11T14:58:29;31.00;22.90
17208;DHT22;8720;48.488;9.202;2022-08-11T15:01:00;31.00;22.70
17208;DHT22;8720;48.488;9.202;2022-08-11T15:03:49;31.00;22.60
17208;DHT22;8720;48.488;9.202;2022-08-11T15:06:17;31.00;22.60
17208;DHT22;8720;48.488;9.202;2022-08-11T15:08:44;31.00;22.70
17208;DHT22;8720;48.488;9.202;2022-08-11T15:11:24;30.90;22.60
17208;DHT22;8720;48.488;9.202;2022-08-11T15:14:13;30.90;22.50
17208;DHT22;8720;48.488;9.202;2022-08-11T15:17:02;30.90;23.10
17208;DHT22;8720;48.488;9.202;2022-08-11T15:19:35;30.90;22.50
17208;DHT22;8720;48.488;9.202;2022-08-11T15:22:26;30.80;22.50
17208;DHT22;8720;48.488;9.202;2022-08-11T15:25:11;30.80;22.60
17208;DHT22;8720;48.488;9.202;2022-08-11T15:27:42;30.90;22.50
17208;DHT22;8720;48.488;9.202;2022-08-11T15:30:30;30.90;22.50
17208;DHT22;8720;48.488;9.202;2022-08-11T15:33:16;30.80;22.40
17208;DHT22;8720;48.488;9.202;2022-08-11T15:36:05;30.80;22.50
17208;DHT22;8720;48.488;9.202;2022-08-11T15:38:56;30.80;22.60
17208;DHT22;8720;48.488;9.202;2022-08-11T15:41:30;30.80;22.50
17208;DHT22;8720;48.488;9.202;2022-08-11T15:44:27;30.80;22.50
17208;DHT22;8720;48.488;9.202;2022-08-11T15:47:22;30.80;22.40
17208;DHT22;8720;48.488;9.202;2022-08-11T15:49:56;30.80;22.20
17208;DHT22;8720;48.488;9.202;2022-08-11T15:52:30;30.80;22.10
17208;DHT22;8720;48.488;9.202;2022-08-11T15:55:06;30.80;22.10
17208;DHT22;8720;48.488;9.202;2022-08-11T15:57:36;30.80;22.00
17208;DHT22;8720;48.488;9.202;2022-08-11T16:00:23;30.80;22.00
17208;DHT22;8720;48.488;9.202;2022-08-11T16:03:11;30.80;22.00
17208;DHT22;8720;48.488;9.202;2022-08-11T16:05:58;30.80;22.00
17208;DHT22;8720;48.488;9.202;2022-08-11T16:08:26;30.80;21.90
17208;DHT22;8720;48.488;9.202;2022-08-11T16:10:55;30.80;21.90
17208;DHT22;8720;48.488;9.202;2022-08-11T16:13:24;30.80;21.90
17208;DHT22;8720;48.488;9.202;2022-08-11T16:16:13;30.80;21.90
17208;DHT22;8720;48.488;9.202;2022-08-11T16:18:45;30.80;21.90
17208;DHT22;8720;48.488;9.202;2022-08-11T16:21:20;30.80;21.80
17208;DHT22;8720;48.488;9.202;2022-08-11T16:23:54;30.80;21.80
17208;DHT22;8720;48.488;9.202;2022-08-11T16:26:25;30.70;21.80
17208;DHT22;8720;48.488;9.202;2022-08-11T16:28:57;30.80;21.70
17208;DHT22;8720;48.488;9.202;2022-08-11T16:31:29;30.70;21.70
17208;DHT22;8720;48.488;9.202;2022-08-11T16:33:59;30.70;21.80
17208;DHT22;8720;48.488;9.202;2022-08-11T16:36:29;30.70;21.90
17208;DHT22;8720;48.488;9.202;2022-08-11T16:39:15;30.70;21.90
17208;DHT22;8720;48.488;9.202;2022-08-11T16:41:44;30.70;21.50
17208;DHT22;8720;48.488;9.202;2022-08-11T16:44:32;30.70;21.40
17208;DHT22;8720;48.488;9.202;2022-08-11T16:47:28;30.60;21.30
17208;DHT22;8720;48.488;9.202;2022-08-11T16:49:56;30.60;21.30
17208;DHT22;8720;48.488;9.202;2022-08-11T16:52:25;30.50;21.20
17208;DHT22;8720;48.488;9.202;2022-08-11T16:54:52;30.50;21.10
17208;DHT22;8720;48.488;9.202;2022-08-11T16:57:22;30.50;21.10
17208;DHT22;8720;48.488;9.202;2022-08-11T17:00:11;30.40;21.10
17208;DHT22;8720;48.488;9.202;2022-08-11T17:02:46;30.40;21.10
17208;DHT22;8720;48.488;9.202;2022-08-11T17:05:34;30.40;21.10
17208;DHT22;8720;48.488;9.202;2022-08-11T17:08:27;30.40;21.20
17208;DHT22;8720;48.488;9.202;2022-08-11T17:11:17;30.30;21.10
17208;DHT22;8720;48.488;9.202;2022-08-11T17:14:18;30.30;21.10
17208;DHT22;8720;48.488;9.202;2022-08-11T17:16:50;30.20;21.20
17208;DHT22;8720;48.488;9.202;2022-08-11T17:19:21;30.20;21.30
17208;DHT22;8720;48.488;9.202;2022-08-11T17:21:52;30.20;21.30
17208;DHT22;8720;48.488;9.202;2022-08-11T17:24:42;30.20;21.30
17208;DHT22;8720;48.488;9.202;2022-08-11T17:27:14;30.10;21.20
17208;DHT22;8720;48.488;9.202;2022-08-11T17:29:47;30.10;21.20
17208;DHT22;8720;48.488;9.202;2022-08-11T17:32:20;30.10;21.20
17208;DHT22;8720;48.488;9.202;2022-08-11T17:35:11;30.00;21.10
17208;DHT22;8720;48.488;9.202;2022-08-11T17:37:57;30.00;21.00
17208;DHT22;8720;48.488;9.202;2022-08-11T17:40:30;30.00;21.20
17208;DHT22;8720;48.488;9.202;2022-08-11T17:43:06;29.90;21.00
17208;DHT22;8720;48.488;9.202;2022-08-11T17:45:54;29.90;21.10
17208;DHT22;8720;48.488;9.202;2022-08-11T17:48:41;29.80;21.00
17208;DHT22;8720;48.488;9.202;2022-08-11T17:51:17;29.70;20.70
17208;DHT22;8720;48.488;9.202;2022-08-11T17:54:01;29.70;20.70
17208;DHT22;8720;48.488;9.202;2022-08-11T17:56:49;29.70;20.90
17208;DHT22;8720;48.488;9.202;2022-08-11T17:59:36;29.60;20.80
17208;DHT22;8720;48.488;9.202;2022-08-11T18:02:24;29.60;21.00